logo tempoitalia

Diretta Meteo Krakow, Polonialunedì 31 agosto ore 07:00

Mappa
Sereno 15 °C Sereno 24 Ore: T.min 14 T.max 27
Ponente Nord Km/h 1.8 Punto di rugiada: 13 °C Umidità: 87% Visibilità: 10 Km
Il sole sorge alle: 05:54 Il sole tramonta alle: 19:27
31 Agosto 2026 07:00 tempo osservato: Sereno Sereno 15 87 1015 vento: Nord N 1.8
31 Agosto 2026 06:30 tempo osservato: Sereno Sereno 15 87 1015 vento: Nord N 3.7
31 Agosto 2026 06:00 tempo osservato: Sereno Sereno 14 93 1015 vento: Nord N 3.7
31 Agosto 2026 05:30 tempo osservato: Nebbia Nebbia 14 93 1015 vento: Nord N 3.7
31 Agosto 2026 05:00 tempo osservato: Nebbia Nebbia 14 93 1015 vento: Nord N 1.8
31 Agosto 2026 04:30 tempo osservato: Nebbia Nebbia 15 87 1015 vento: Nord N 1.8
31 Agosto 2026 04:00 tempo osservato: Sereno Sereno 15 93 1015 vento: Nord N 3.7
31 Agosto 2026 03:30 tempo osservato: Sereno Sereno 15 93 1015 vento: Nord N 1.8
31 Agosto 2026 03:00 tempo osservato: Sereno Sereno 16 87 1015 vento: Nord N 3.7
31 Agosto 2026 02:30 tempo osservato: Sereno Sereno 16 87 1015 vento: Nord N 1.8
31 Agosto 2026 02:00 tempo osservato: Sereno Sereno 16 87 1015 vento: Nord N 1.8
31 Agosto 2026 01:30 tempo osservato: Sereno Sereno 17 82 1015 vento: Nord N 1.8
31 Agosto 2026 01:00 tempo osservato: Sereno Sereno 17 82 1015 vento: Nord N 1.8
31 Agosto 2026 00:30 tempo osservato: Sereno Sereno 17 82 1015 vento: Nord N 1.8
31 Agosto 2026 00:00 tempo osservato: Sereno Sereno 18 77 1016 vento: Nord N 1.8
30 Agosto 2026 23:30 tempo osservato: Sereno Sereno 18 77 1016 vento: Nord N 1.8
30 Agosto 2026 23:00 tempo osservato: Sereno Sereno 18 77 1016 vento: Nord N 3.7
30 Agosto 2026 22:30 tempo osservato: Sereno Sereno 19 72 1016 vento: Nord N 3.7
30 Agosto 2026 22:00 tempo osservato: Sereno Sereno 19 72 1015 vento: Nord N 3.7
30 Agosto 2026 21:30 tempo osservato: Sereno Sereno 19 72 1016 vento: Nord N 3.7
30 Agosto 2026 21:00 tempo osservato: Sereno Sereno 19 72 1016 vento: Nord N 1.8
30 Agosto 2026 20:30 tempo osservato: Sereno Sereno 20 68 1015 vento: Nord N 1.8
30 Agosto 2026 20:00 tempo osservato: Sereno Sereno 22 60 1015 vento: Nord N 1.8
30 Agosto 2026 19:30 tempo osservato: Sereno Sereno 23 60 1015 vento: Nord N 1.8
30 Agosto 2026 19:00 tempo osservato: Sereno Sereno 26 41 1015 vento: Nord N 5.5
30 Agosto 2026 18:30 tempo osservato: Sereno Sereno 26 44 1015 vento: Nord N 5.5
30 Agosto 2026 18:00 tempo osservato: Sereno Sereno 27 39 1015 vento: Nord O/NO 7.4
30 Agosto 2026 17:30 tempo osservato: Sereno Sereno 27 39 1015 vento: Nord O 9.3
30 Agosto 2026 17:00 tempo osservato: Sereno Sereno 27 36 1015 vento: Nord SO 7.4
30 Agosto 2026 16:30 tempo osservato: Sereno Sereno 27 36 1015 vento: Nord SO 9.3
30 Agosto 2026 16:00 tempo osservato: Poco Nuvoloso Poco Nuvoloso 27 36 1015 vento: Nord O 14.8
30 Agosto 2026 15:30 tempo osservato: Poco Nuvoloso Poco Nuvoloso 27 36 1015 vento: Nord O/SO 13
30 Agosto 2026 15:00 tempo osservato: Poco Nuvoloso Poco Nuvoloso 27 39 1015 vento: Nord SO 11.1
30 Agosto 2026 14:30 tempo osservato: Poco Nuvoloso Poco Nuvoloso 27 39 1016 vento: Nord O 14.8
30 Agosto 2026 14:00 tempo osservato: Poco Nuvoloso Poco Nuvoloso 27 39 1016 vento: Nord O 9.3
30 Agosto 2026 13:30 tempo osservato: Poco Nuvoloso Poco Nuvoloso 27 39 1016 vento: Nord S/SO 9.3
30 Agosto 2026 13:00 tempo osservato: Poco Nuvoloso Poco Nuvoloso 26 39 1016 vento: Nord O 13
30 Agosto 2026 12:30 tempo osservato: Poco Nuvoloso Poco Nuvoloso 26 44 1016 vento: Nord O/SO 9.3
30 Agosto 2026 12:00 tempo osservato: Sereno Sereno 25 53 1017 vento: Nord O/SO 7.4
30 Agosto 2026 11:30 tempo osservato: Sereno Sereno 24 50 1017 vento: Nord N 5.5
30 Agosto 2026 11:00 tempo osservato: Sereno Sereno 23 53 1017 vento: Nord N 5.5
30 Agosto 2026 10:30 tempo osservato: Sereno Sereno 23 53 1017 vento: Nord N 3.7
30 Agosto 2026 10:00 tempo osservato: Sereno Sereno 21 60 1017 vento: Nord N 3.7
30 Agosto 2026 09:30 tempo osservato: Sereno Sereno 20 68 1017 vento: Nord N 1.8
30 Agosto 2026 09:00 tempo osservato: Sereno Sereno 20 68 1017 vento: Nord N 1.8
30 Agosto 2026 08:30 tempo osservato: Sereno Sereno 18 72 1017 vento: Nord N 1.8
30 Agosto 2026 08:00 tempo osservato: Poco Nuvoloso Poco Nuvoloso 17 77 1017 vento: Nord N 1.8